Time,TemperatureF,DewpointF,PressureIn,WindDirection,WindDirectionDegrees,WindSpeedMPH,WindSpeedGustMPH,Humidity,HourlyPrecipIn,Conditions,Clouds,dailyrainin,SoftwareType,DateUTC
2013-03-11 00:02:00,35.0,18.0,-100.00,ESE,116,3.0,5.0,50,-99.99,,,-99.99,,2013-03-11 07:02:00,
2013-03-11 00:12:00,34.0,18.0,-100.00,ESE,113,3.0,4.0,52,-99.99,,,-99.99,,2013-03-11 07:12:00,
2013-03-11 00:21:00,33.0,18.0,-100.00,ESE,103,1.0,3.0,53,-99.99,,,-99.99,,2013-03-11 07:21:00,
2013-03-11 00:32:00,33.0,18.0,-100.00,ESE,103,1.0,3.0,53,-99.99,,,-99.99,,2013-03-11 07:32:00,
2013-03-11 00:42:00,35.0,17.0,-100.00,ESE,103,3.0,5.0,48,-99.99,,,-99.99,,2013-03-11 07:42:00,
2013-03-11 00:52:00,33.0,17.0,-100.00,ESE,112,3.0,5.0,52,-99.99,,,-99.99,,2013-03-11 07:52:00,
2013-03-11 01:02:00,33.0,17.0,-100.00,ESE,112,3.0,5.0,52,-99.99,,,-99.99,,2013-03-11 08:02:00,
2013-03-11 01:12:00,33.0,17.0,-100.00,East,90,2.0,4.0,51,-99.99,,,-99.99,,2013-03-11 08:12:00,
2013-03-11 01:22:00,33.0,16.0,-100.00,ENE,73,2.0,5.0,49,-99.99,,,-99.99,,2013-03-11 08:22:00,
2013-03-11 01:32:00,33.0,16.0,-100.00,ENE,73,2.0,5.0,49,-99.99,,,-99.99,,2013-03-11 08:32:00,
2013-03-11 01:42:00,32.0,16.0,-100.00,ENE,78,1.0,3.0,52,-99.99,,,-99.99,,2013-03-11 08:42:00,
2013-03-11 01:52:00,31.0,16.0,-100.00,ESE,104,1.0,3.0,54,-99.99,,,-99.99,,2013-03-11 08:52:00,
2013-03-11 02:02:00,31.0,16.0,-100.00,ESE,103,2.0,3.0,53,-99.99,,,-99.99,,2013-03-11 09:02:00,
2013-03-11 02:12:00,30.0,16.0,-100.00,East,79,2.0,4.0,56,-99.99,,,-99.99,,2013-03-11 09:12:00,
2013-03-11 02:22:00,31.0,16.0,-100.00,ESE,104,4.0,6.0,53,-99.99,,,-99.99,,2013-03-11 09:22:00,
2013-03-11 02:32:00,31.0,16.0,-100.00,ESE,104,4.0,6.0,53,-99.99,,,-99.99,,2013-03-11 09:32:00,
2013-03-11 02:42:00,29.0,16.0,-100.00,ESE,113,3.0,6.0,59,-99.99,,,-99.99,,2013-03-11 09:42:00,
2013-03-11 02:52:00,29.0,16.0,-100.00,ESE,113,3.0,6.0,59,-99.99,,,-99.99,,2013-03-11 09:52:00,
2013-03-11 03:02:00,29.0,17.0,-100.00,ESE,110,3.0,5.0,61,-99.99,,,-99.99,,2013-03-11 10:02:00,
2013-03-11 03:12:00,28.0,18.0,-100.00,SE,130,1.0,3.0,66,-99.99,,,-99.99,,2013-03-11 10:12:00,
2013-03-11 03:22:00,28.0,17.0,-100.00,SE,143,2.0,5.0,64,-99.99,,,-99.99,,2013-03-11 10:22:00,
2013-03-11 03:32:00,28.0,17.0,-100.00,SE,143,2.0,5.0,64,-99.99,,,-99.99,,2013-03-11 10:32:00,
2013-03-11 03:42:00,28.0,17.0,-100.00,ESE,106,3.0,5.0,62,-99.99,,,-99.99,,2013-03-11 10:42:00,
2013-03-11 03:52:00,30.0,18.0,-100.00,East,100,3.0,4.0,60,-99.99,,,-99.99,,2013-03-11 10:52:00,
2013-03-11 04:02:00,30.0,18.0,-100.00,East,100,3.0,4.0,60,-99.99,,,-99.99,,2013-03-11 11:02:00,
2013-03-11 04:12:00,28.0,16.0,-100.00,East,82,2.0,3.0,59,-99.99,,,-99.99,,2013-03-11 11:12:00,
2013-03-11 04:22:00,27.0,16.0,-100.00,East,85,2.0,3.0,61,-99.99,,,-99.99,,2013-03-11 11:22:00,
2013-03-11 04:32:00,27.0,17.0,-100.00,West,281,0.0,1.0,66,-99.99,,,-99.99,,2013-03-11 11:32:00,
2013-03-11 04:42:00,27.0,16.0,-100.00,ENE,78,1.0,2.0,63,-99.99,,,-99.99,,2013-03-11 11:42:00,
2013-03-11 04:52:00,27.0,16.0,-100.00,ENE,78,1.0,2.0,63,-99.99,,,-99.99,,2013-03-11 11:52:00,
2013-03-11 05:02:00,28.0,17.0,-100.00,East,92,2.0,3.0,63,-99.99,,,-99.99,,2013-03-11 12:02:00,
2013-03-11 05:12:00,26.0,16.0,-100.00,ESE,103,3.0,5.0,65,-99.99,,,-99.99,,2013-03-11 12:12:00,
2013-03-11 05:22:00,26.0,16.0,-100.00,East,99,3.0,5.0,65,-99.99,,,-99.99,,2013-03-11 12:22:00,
2013-03-11 05:32:00,26.0,16.0,-100.00,East,99,3.0,5.0,65,-99.99,,,-99.99,,2013-03-11 12:32:00,
2013-03-11 05:42:00,25.0,17.0,-100.00,SSE,150,1.0,4.0,70,-99.99,,,-99.99,,2013-03-11 12:42:00,
2013-03-11 05:52:00,25.0,17.0,-100.00,SSE,150,1.0,4.0,70,-99.99,,,-99.99,,2013-03-11 12:52:00,
2013-03-11 06:02:00,26.0,17.0,-100.00,East,89,2.0,3.0,69,-99.99,,,-99.99,,2013-03-11 13:02:00,
2013-03-11 06:12:00,26.0,16.0,-100.00,ESE,109,2.0,3.0,66,-99.99,,,-99.99,,2013-03-11 13:12:00,
2013-03-11 06:22:00,26.0,16.0,-100.00,ESE,109,2.0,3.0,66,-99.99,,,-99.99,,2013-03-11 13:22:00,
2013-03-11 06:32:00,25.0,18.0,-100.00,South,176,0.0,2.0,74,-99.99,,,-99.99,,2013-03-11 13:32:00,
2013-03-11 06:42:00,25.0,16.0,-100.00,SE,126,3.0,5.0,68,-99.99,,,-99.99,,2013-03-11 13:42:00,
2013-03-11 06:52:00,25.0,17.0,-100.00,SE,128,3.0,5.0,71,-99.99,,,-99.99,,2013-03-11 13:52:00,
2013-03-11 07:02:00,25.0,17.0,-100.00,SE,128,3.0,5.0,71,-99.99,,,-99.99,,2013-03-11 14:02:00,
2013-03-11 07:12:00,25.0,17.0,-100.00,ESE,114,2.0,4.0,72,-99.99,,,-99.99,,2013-03-11 14:12:00,
2013-03-11 07:22:00,25.0,17.0,-100.00,ESE,112,3.0,5.0,71,-99.99,,,-99.99,,2013-03-11 14:22:00,
2013-03-11 07:32:00,25.0,17.0,-100.00,ESE,112,3.0,5.0,71,-99.99,,,-99.99,,2013-03-11 14:32:00,
2013-03-11 07:42:00,24.0,15.0,-100.00,ESE,103,3.0,5.0,69,-99.99,,,-99.99,,2013-03-11 14:42:00,
2013-03-11 07:52:00,25.0,18.0,-100.00,ESE,114,3.0,5.0,73,-99.99,,,-99.99,,2013-03-11 14:52:00,
2013-03-11 08:02:00,25.0,18.0,-100.00,ESE,114,3.0,5.0,73,-99.99,,,-99.99,,2013-03-11 15:02:00,
2013-03-11 08:12:00,24.0,17.0,-100.00,ESE,121,4.0,5.0,74,-99.99,,,-99.99,,2013-03-11 15:12:00,
2013-03-11 08:22:00,24.0,17.0,-100.00,ESE,121,4.0,5.0,74,-99.99,,,-99.99,,2013-03-11 15:22:00,
2013-03-11 08:32:00,26.0,17.0,-100.00,ESE,103,3.0,4.0,67,-99.99,,,-99.99,,2013-03-11 15:32:00,
2013-03-11 08:42:00,29.0,18.0,-100.00,East,92,3.0,5.0,64,-99.99,,,-99.99,,2013-03-11 15:42:00,
2013-03-11 08:52:00,29.0,18.0,-100.00,East,92,3.0,5.0,64,-99.99,,,-99.99,,2013-03-11 15:52:00,
2013-03-11 09:02:00,32.0,19.0,-100.00,East,96,2.0,4.0,59,-99.99,,,-99.99,,2013-03-11 16:02:00,
2013-03-11 09:12:00,35.0,19.0,-100.00,NE,44,0.0,3.0,51,-99.99,,,-99.99,,2013-03-11 16:12:00,
2013-03-11 09:22:00,35.0,19.0,-100.00,NE,44,0.0,3.0,51,-99.99,,,-99.99,,2013-03-11 16:22:00,
2013-03-11 09:32:00,36.0,18.0,-100.00,NW,315,1.0,3.0,48,-99.99,,,-99.99,,2013-03-11 16:32:00,
2013-03-11 09:42:00,37.0,20.0,-100.00,West,270,3.0,5.0,49,-99.99,,,-99.99,,2013-03-11 16:42:00,
2013-03-11 09:52:00,37.0,20.0,-100.00,West,270,3.0,5.0,49,-99.99,,,-99.99,,2013-03-11 16:52:00,
2013-03-11 10:02:00,37.0,20.0,-100.00,West,270,3.0,5.0,49,-99.99,,,-99.99,,2013-03-11 17:02:00,
2013-03-11 10:24:00,40.0,19.0,-100.00,West,270,2.0,4.0,43,-99.99,,,-99.99,,2013-03-11 17:24:00,
2013-03-11 10:34:00,42.0,20.0,-100.00,WSW,246,2.0,5.0,41,-99.99,,,-99.99,,2013-03-11 17:34:00,
2013-03-11 10:42:00,42.0,18.0,-100.00,West,274,2.0,4.0,38,-99.99,,,-99.99,,2013-03-11 17:42:00,
2013-03-11 10:52:00,45.0,17.0,-100.00,WSW,254,1.0,4.0,32,-99.99,,,-99.99,,2013-03-11 17:52:00,
2013-03-11 11:02:00,45.0,17.0,-100.00,WSW,254,1.0,4.0,32,-99.99,,,-99.99,,2013-03-11 18:02:00,
2013-03-11 11:12:00,46.0,16.0,-100.00,ESE,113,2.0,4.0,30,-99.99,,,-99.99,,2013-03-11 18:12:00,
2013-03-11 11:22:00,47.0,17.0,-100.00,ESE,110,2.0,4.0,30,-99.99,,,-99.99,,2013-03-11 18:22:00,
2013-03-11 11:32:00,49.0,17.0,-100.00,WSW,250,2.0,5.0,28,-99.99,,,-99.99,,2013-03-11 18:32:00,
2013-03-11 11:42:00,49.0,16.0,-100.00,WSW,244,2.0,5.0,27,-99.99,,,-99.99,,2013-03-11 18:42:00,
2013-03-11 11:52:00,49.0,16.0,-100.00,WSW,244,2.0,5.0,27,-99.99,,,-99.99,,2013-03-11 18:52:00,
2013-03-11 12:02:00,51.0,17.0,-100.00,SW,215,2.0,4.0,26,-99.99,,,-99.99,,2013-03-11 19:02:00,
2013-03-11 12:12:00,53.0,19.0,-100.00,East,93,2.0,7.0,26,-99.99,,,-99.99,,2013-03-11 19:12:00,
2013-03-11 12:22:00,53.0,17.0,-100.00,SE,130,2.0,7.0,24,-99.99,,,-99.99,,2013-03-11 19:22:00,
2013-03-11 12:32:00,53.0,16.0,-100.00,WNW,285,2.0,5.0,23,-99.99,,,-99.99,,2013-03-11 19:32:00,
2013-03-11 12:42:00,55.0,17.0,-100.00,NW,322,3.0,6.0,22,-99.99,,,-99.99,,2013-03-11 19:42:00,
2013-03-11 12:52:00,55.0,17.0,-100.00,NW,322,3.0,6.0,22,-99.99,,,-99.99,,2013-03-11 19:52:00,
2013-03-11 13:02:00,55.0,14.0,-100.00,NW,319,3.0,7.0,19,-99.99,,,-99.99,,2013-03-11 20:02:00,
2013-03-11 13:12:00,57.0,13.0,-100.00,NW,323,2.0,8.0,17,-99.99,,,-99.99,,2013-03-11 20:12:00,
2013-03-11 13:22:00,57.0,14.0,-100.00,NW,323,2.0,8.0,18,-99.99,,,-99.99,,2013-03-11 20:22:00,
2013-03-11 13:32:00,58.0,9.0,-100.00,NNW,335,3.0,9.0,14,-99.99,,,-99.99,,2013-03-11 20:32:00,
2013-03-11 13:43:00,59.0,10.0,-100.00,West,277,3.0,6.0,14,-99.99,,,-99.99,,2013-03-11 20:43:00,
2013-03-11 13:52:00,59.0,10.0,-100.00,West,277,3.0,6.0,14,-99.99,,,-99.99,,2013-03-11 20:52:00,
2013-03-11 14:02:00,61.0,8.0,-100.00,NW,308,3.0,7.0,12,-99.99,,,-99.99,,2013-03-11 21:02:00,
2013-03-11 14:12:00,61.0,8.0,-100.00,WSW,256,3.0,7.0,12,-99.99,,,-99.99,,2013-03-11 21:12:00,
2013-03-11 14:22:00,61.0,8.0,-100.00,West,263,2.0,6.0,12,-99.99,,,-99.99,,2013-03-11 21:22:00,
2013-03-11 14:32:00,60.0,7.0,-100.00,WNW,302,5.0,10.0,12,-99.99,,,-99.99,,2013-03-11 21:32:00,
2013-03-11 14:43:00,61.0,6.0,-100.00,WNW,301,5.0,11.0,11,-99.99,,,-99.99,,2013-03-11 21:43:00,
2013-03-11 14:52:00,61.0,6.0,-100.00,WNW,301,5.0,11.0,11,-99.99,,,-99.99,,2013-03-11 21:52:00,
2013-03-11 15:02:00,63.0,6.0,-100.00,WNW,282,4.0,11.0,10,-99.99,,,-99.99,,2013-03-11 22:02:00,
2013-03-11 15:12:00,63.0,6.0,-100.00,WNW,282,4.0,11.0,10,-99.99,,,-99.99,,2013-03-11 22:12:00,
2013-03-11 15:22:00,62.0,7.0,-100.00,NW,311,4.0,9.0,11,-99.99,,,-99.99,,2013-03-11 22:22:00,
2013-03-11 15:32:00,63.0,8.0,-100.00,WNW,289,4.0,9.0,11,-99.99,,,-99.99,,2013-03-11 22:32:00,
2013-03-11 15:43:00,64.0,8.0,-100.00,WNW,292,3.0,8.0,11,-99.99,,,-99.99,,2013-03-11 22:43:00,
2013-03-11 15:52:00,64.0,12.0,-100.00,NNW,346,4.0,10.0,13,-99.99,,,-99.99,,2013-03-11 22:52:00,
2013-03-11 16:02:00,64.0,12.0,-100.00,NNW,346,4.0,10.0,13,-99.99,,,-99.99,,2013-03-11 23:02:00,
2013-03-11 16:12:00,65.0,11.0,-100.00,NNW,337,4.0,9.0,12,-99.99,,,-99.99,,2013-03-11 23:12:00,
2013-03-11 16:22:00,65.0,11.0,-100.00,NNW,337,4.0,9.0,12,-99.99,,,-99.99,,2013-03-11 23:22:00,
2013-03-11 16:32:00,63.0,13.0,-100.00,NW,322,6.0,12.0,14,-99.99,,,-99.99,,2013-03-11 23:32:00,
2013-03-11 16:43:00,66.0,14.0,-100.00,WSW,254,6.0,9.0,13,-99.99,,,-99.99,,2013-03-11 23:43:00,
2013-03-11 16:52:00,66.0,14.0,-100.00,WSW,254,6.0,9.0,13,-99.99,,,-99.99,,2013-03-11 23:52:00,
2013-03-11 17:02:00,65.0,13.0,-100.00,NNW,328,4.0,9.0,13,-99.99,,,-99.99,,2013-03-12 00:02:00,
2013-03-11 17:12:00,64.0,14.0,-100.00,WNW,294,5.0,11.0,14,-99.99,,,-99.99,,2013-03-12 00:12:00,
2013-03-11 17:22:00,65.0,15.0,-100.00,WNW,285,4.0,9.0,14,-99.99,,,-99.99,,2013-03-12 00:22:00,
2013-03-11 17:32:00,65.0,15.0,-100.00,NW,316,3.0,7.0,14,-99.99,,,-99.99,,2013-03-12 00:32:00,
2013-03-11 17:42:00,65.0,15.0,-100.00,WNW,294,5.0,9.0,14,-99.99,,,-99.99,,2013-03-12 00:42:00,
2013-03-11 17:53:00,65.0,15.0,-100.00,WNW,294,5.0,9.0,14,-99.99,,,-99.99,,2013-03-12 00:53:00,
2013-03-11 18:02:00,65.0,15.0,-100.00,West,271,4.0,8.0,14,-99.99,,,-99.99,,2013-03-12 01:02:00,
2013-03-11 18:12:00,65.0,15.0,-100.00,West,264,5.0,10.0,14,-99.99,,,-99.99,,2013-03-12 01:12:00,
2013-03-11 18:22:00,65.0,15.0,-100.00,West,264,5.0,10.0,14,-99.99,,,-99.99,,2013-03-12 01:22:00,
2013-03-11 18:32:00,64.0,15.0,-100.00,WNW,296,5.0,10.0,15,-99.99,,,-99.99,,2013-03-12 01:32:00,
2013-03-11 18:42:00,64.0,15.0,-100.00,WNW,284,6.0,9.0,15,-99.99,,,-99.99,,2013-03-12 01:42:00,
2013-03-11 18:52:00,64.0,15.0,-100.00,WNW,284,6.0,9.0,15,-99.99,,,-99.99,,2013-03-12 01:52:00,
2013-03-11 19:02:00,63.0,15.0,-100.00,West,277,7.0,11.0,15,-99.99,,,-99.99,,2013-03-12 02:02:00,
2013-03-11 19:12:00,60.0,18.0,-100.00,West,272,5.0,11.0,19,-99.99,,,-99.99,,2013-03-12 02:12:00,
2013-03-11 19:22:00,56.0,19.0,-100.00,WSW,243,6.0,9.0,23,-99.99,,,-99.99,,2013-03-12 02:22:00,
2013-03-11 19:32:00,56.0,19.0,-100.00,WSW,243,6.0,9.0,23,-99.99,,,-99.99,,2013-03-12 02:32:00,
2013-03-11 19:42:00,53.0,20.0,-100.00,SW,236,5.0,8.0,27,-99.99,,,-99.99,,2013-03-12 02:42:00,
2013-03-11 19:52:00,53.0,20.0,-100.00,SW,236,5.0,8.0,27,-99.99,,,-99.99,,2013-03-12 02:52:00,
2013-03-11 20:02:00,52.0,21.0,-100.00,WSW,240,3.0,4.0,29,-99.99,,,-99.99,,2013-03-12 03:02:00,
2013-03-11 20:12:00,50.0,22.0,-100.00,WSW,241,5.0,7.0,33,-99.99,,,-99.99,,2013-03-12 03:12:00,
2013-03-11 20:22:00,49.0,21.0,-100.00,SW,236,5.0,7.0,33,-99.99,,,-99.99,,2013-03-12 03:22:00,
2013-03-11 20:32:00,49.0,21.0,-100.00,SW,236,5.0,7.0,33,-99.99,,,-99.99,,2013-03-12 03:32:00,
2013-03-11 20:42:00,49.0,21.0,-100.00,SW,236,5.0,7.0,33,-99.99,,,-99.99,,2013-03-12 03:42:00,
2013-03-11 21:02:00,49.0,20.0,-100.00,SSE,167,0.0,2.0,32,-99.99,,,-99.99,,2013-03-12 04:02:00,
2013-03-11 21:12:00,47.0,25.0,-100.00,South,186,3.0,5.0,41,-99.99,,,-99.99,,2013-03-12 04:12:00,
2013-03-11 21:22:00,44.0,22.0,-100.00,WSW,244,4.0,5.0,42,-99.99,,,-99.99,,2013-03-12 04:22:00,
2013-03-11 21:32:00,44.0,22.0,-100.00,WSW,244,4.0,5.0,42,-99.99,,,-99.99,,2013-03-12 04:32:00,
2013-03-11 21:42:00,45.0,20.0,-100.00,East,93,0.0,3.0,37,-99.99,,,-99.99,,2013-03-12 04:42:00,
2013-03-11 21:52:00,45.0,20.0,-100.00,East,93,0.0,3.0,37,-99.99,,,-99.99,,2013-03-12 04:52:00,
2013-03-11 22:02:00,43.0,22.0,-100.00,SE,136,3.0,4.0,42,-99.99,,,-99.99,,2013-03-12 05:02:00,
2013-03-11 22:12:00,42.0,23.0,-100.00,SSE,167,2.0,3.0,46,-99.99,,,-99.99,,2013-03-12 05:12:00,
2013-03-11 22:22:00,42.0,23.0,-100.00,South,172,3.0,3.0,46,-99.99,,,-99.99,,2013-03-12 05:22:00,
2013-03-11 22:32:00,42.0,23.0,-100.00,South,172,3.0,3.0,46,-99.99,,,-99.99,,2013-03-12 05:32:00,
2013-03-11 22:42:00,42.0,23.0,-100.00,SE,124,3.0,5.0,46,-99.99,,,-99.99,,2013-03-12 05:42:00,
2013-03-11 22:52:00,42.0,23.0,-100.00,SE,124,3.0,5.0,46,-99.99,,,-99.99,,2013-03-12 05:52:00,
2013-03-11 23:02:00,42.0,21.0,-100.00,ESE,112,3.0,5.0,43,-99.99,,,-99.99,,2013-03-12 06:02:00,
2013-03-11 23:12:00,41.0,23.0,-100.00,SE,137,2.0,3.0,49,-99.99,,,-99.99,,2013-03-12 06:12:00,
2013-03-11 23:22:00,41.0,23.0,-100.00,SE,126,2.0,4.0,47,-99.99,,,-99.99,,2013-03-12 06:22:00,
2013-03-11 23:32:00,41.0,22.0,-100.00,ESE,113,4.0,5.0,46,-99.99,,,-99.99,,2013-03-12 06:32:00,
2013-03-11 23:42:00,40.0,23.0,-100.00,ESE,119,4.0,6.0,50,-99.99,,,-99.99,,2013-03-12 06:42:00,
2013-03-11 23:52:00,40.0,23.0,-100.00,ESE,119,4.0,6.0,50,-99.99,,,-99.99,,2013-03-12 06:52:00,